createdAt,value
2018-08-18T00:00:41.884Z,91.26
2018-08-18T00:03:18.559Z,91.20
2018-08-18T00:05:52.808Z,91.40
2018-08-18T00:08:26.060Z,91.48
2018-08-18T00:11:04.182Z,91.76
2018-08-18T00:13:55.694Z,91.94
2018-08-18T00:16:28.513Z,92.00
2018-08-18T00:19:01.568Z,92.03
2018-08-18T00:21:35.120Z,92.11
2018-08-18T00:24:11.864Z,92.13
2018-08-18T00:26:47.816Z,92.13
2018-08-18T00:29:21.169Z,92.19
2018-08-18T00:31:53.640Z,92.27
2018-08-18T00:34:26.818Z,92.32
2018-08-18T00:36:59.540Z,92.47
2018-08-18T00:39:32.470Z,92.59
2018-08-18T00:42:05.492Z,92.67
2018-08-18T00:44:38.586Z,92.74
2018-08-18T00:47:13.520Z,92.70
2018-08-18T00:49:47.464Z,92.80
2018-08-18T00:52:21.430Z,92.88
2018-08-18T00:54:54.019Z,92.93
2018-08-18T00:57:30.614Z,92.91
2018-08-18T01:00:07.024Z,92.87
2018-08-18T01:02:40.191Z,92.79
2018-08-18T01:05:14.270Z,92.74
2018-08-18T01:07:46.961Z,92.89
2018-08-18T01:10:21.853Z,93.03
2018-08-18T01:13:13.436Z,92.93
2018-08-18T01:15:45.933Z,92.93
2018-08-18T01:18:18.532Z,92.88
2018-08-18T01:20:51.597Z,92.86
2018-08-18T01:23:24.064Z,92.90
2018-08-18T01:25:56.580Z,92.99
2018-08-18T01:28:30.616Z,93.04
2018-08-18T01:31:19.532Z,93.03
2018-08-18T01:33:53.827Z,93.13
2018-08-18T01:36:26.568Z,93.28
2018-08-18T01:39:00.463Z,93.17
2018-08-18T01:41:32.929Z,93.20
2018-08-18T01:44:21.275Z,93.19
2018-08-18T01:46:54.277Z,93.24
2018-08-18T01:49:33.616Z,93.24
2018-08-18T01:52:15.792Z,93.22
2018-08-18T01:54:49.756Z,93.15
2018-08-18T01:57:23.681Z,93.15
2018-08-18T01:59:56.261Z,93.15
2018-08-18T02:02:28.838Z,93.14
2018-08-18T02:05:16.989Z,93.25
2018-08-18T02:07:49.679Z,93.40
2018-08-18T02:10:22.348Z,93.39
2018-08-18T02:13:04.609Z,93.42
2018-08-18T02:15:37.065Z,93.66
2018-08-18T02:18:10.315Z,93.75
2018-08-18T02:20:44.020Z,93.82
2018-08-18T02:23:16.501Z,93.80
2018-08-18T02:25:48.999Z,94.02
2018-08-18T02:28:30.388Z,94.13
2018-08-18T02:31:03.001Z,94.26
2018-08-18T02:33:35.400Z,94.40
2018-08-18T02:36:08.479Z,94.45
2018-08-18T02:38:53.794Z,94.49
2018-08-18T02:41:29.117Z,94.52
2018-08-18T02:44:02.921Z,94.43
2018-08-18T02:46:37.832Z,94.39
2018-08-18T02:49:10.320Z,94.45
2018-08-18T02:51:43.109Z,94.38
2018-08-18T02:54:15.677Z,94.32
2018-08-18T02:56:48.230Z,94.25
2018-08-18T02:59:21.105Z,94.25
2018-08-18T03:01:55.300Z,94.22
2018-08-18T03:04:46.318Z,94.07
2018-08-18T03:07:19.193Z,93.85
2018-08-18T03:09:52.131Z,93.71
2018-08-18T03:12:42.800Z,93.61
2018-08-18T03:15:51.544Z,93.59
2018-08-18T03:18:49.972Z,93.60
2018-08-18T03:21:32.787Z,93.66
2018-08-18T03:24:19.978Z,93.59
2018-08-18T03:26:56.213Z,93.54
2018-08-18T03:29:50.701Z,93.49
2018-08-18T03:32:24.810Z,93.39
2018-08-18T03:34:58.146Z,93.18
2018-08-18T03:37:35.416Z,93.20
2018-08-18T03:40:08.149Z,93.22
2018-08-18T03:42:41.956Z,93.00
2018-08-18T03:45:16.471Z,92.76
2018-08-18T03:47:49.052Z,92.74
2018-08-18T03:50:48.748Z,92.82
2018-08-18T03:53:21.219Z,93.08
2018-08-18T03:55:53.579Z,93.23
2018-08-18T03:58:51.712Z,93.31
2018-08-18T04:01:58.360Z,93.30
2018-08-18T04:04:38.470Z,93.09
2018-08-18T04:07:11.077Z,92.94
2018-08-18T04:09:43.586Z,92.95
2018-08-18T04:12:16.401Z,92.89
2018-08-18T04:14:49.025Z,92.89
2018-08-18T04:17:31.128Z,92.89
2018-08-18T04:20:04.570Z,92.79
2018-08-18T04:22:37.995Z,92.72
2018-08-18T04:25:10.472Z,92.71
2018-08-18T04:27:46.456Z,92.82
2018-08-18T04:30:22.433Z,92.93
2018-08-18T04:33:04.400Z,93.19
2018-08-18T04:35:59.388Z,93.20
2018-08-18T04:38:31.972Z,93.45
2018-08-18T04:41:08.259Z,93.45
2018-08-18T04:43:41.037Z,93.27
2018-08-18T04:46:15.090Z,93.21
2018-08-18T04:48:48.884Z,93.26
2018-08-18T04:51:23.995Z,93.40
2018-08-18T04:53:56.613Z,93.42
2018-08-18T04:56:29.796Z,93.48
2018-08-18T04:59:02.806Z,93.53
2018-08-18T05:01:35.440Z,93.48
2018-08-18T05:04:10.424Z,93.49
2018-08-18T05:06:43.303Z,93.45
2018-08-18T05:09:15.852Z,93.50
2018-08-18T05:11:50.436Z,93.53
2018-08-18T05:14:23.216Z,93.61
2018-08-18T05:16:57.607Z,93.79
2018-08-18T05:19:31.096Z,93.92
2018-08-18T05:22:03.605Z,93.99
2018-08-18T05:24:36.163Z,94.00
2018-08-18T05:27:14.481Z,94.00
2018-08-18T05:29:48.591Z,94.03
2018-08-18T05:32:21.579Z,94.12
2018-08-18T05:34:54.492Z,94.28
2018-08-18T05:37:27.019Z,94.39
2018-08-18T05:39:59.619Z,94.46
2018-08-18T05:42:32.425Z,94.44
2018-08-18T05:45:27.160Z,94.52
2018-08-18T05:47:59.671Z,94.68
2018-08-18T05:50:32.699Z,94.68
2018-08-18T05:53:35.170Z,94.76
2018-08-18T05:56:07.724Z,94.68
2018-08-18T05:58:54.185Z,94.63
2018-08-18T06:01:35.320Z,94.63
2018-08-18T06:04:12.833Z,94.59
2018-08-18T06:06:46.276Z,94.54
2018-08-18T06:09:20.883Z,94.67
2018-08-18T06:11:56.882Z,94.98
2018-08-18T06:14:46.564Z,95.12
2018-08-18T06:17:25.015Z,95.22
2018-08-18T06:19:57.649Z,95.30
2018-08-18T06:22:30.170Z,95.32
2018-08-18T06:25:03.458Z,95.31
2018-08-18T06:27:35.969Z,95.31
2018-08-18T06:30:08.136Z,95.25
2018-08-18T06:32:41.077Z,95.22
2018-08-18T06:35:15.218Z,95.18
2018-08-18T06:37:59.092Z,95.01
2018-08-18T06:40:32.495Z,94.73
2018-08-18T06:43:06.184Z,94.32
2018-08-18T06:45:38.764Z,93.87
2018-08-18T06:48:20.906Z,93.33
2018-08-18T06:50:53.787Z,92.38
2018-08-18T06:53:26.958Z,91.31
2018-08-18T06:56:00.361Z,90.73
2018-08-18T06:58:33.345Z,89.79
2018-08-18T07:01:07.489Z,89.32
2018-08-18T07:03:46.516Z,88.53
2018-08-18T07:06:19.264Z,87.40
2018-08-18T07:08:52.901Z,87.68
2018-08-18T07:11:25.485Z,87.55
2018-08-18T07:14:00.439Z,85.92
2018-08-18T07:16:34.733Z,84.88
2018-08-18T07:19:08.200Z,84.85
2018-08-18T07:21:41.046Z,84.60
2018-08-18T07:24:14.123Z,84.94
2018-08-18T07:26:46.709Z,84.47
2018-08-18T07:29:48.912Z,82.91
2018-08-18T07:32:23.235Z,80.64
2018-08-18T07:34:55.926Z,74.15
2018-08-18T07:37:29.507Z,71.96
2018-08-18T07:40:02.237Z,68.92
2018-08-18T07:42:34.796Z,66.63
2018-08-18T07:45:08.277Z,64.05
2018-08-18T07:47:40.774Z,63.51
2018-08-18T07:50:14.621Z,59.04
2018-08-18T07:52:48.163Z,57.87
2018-08-18T07:55:20.772Z,57.05
2018-08-18T07:57:59.664Z,58.49
2018-08-18T08:00:33.616Z,56.11
2018-08-18T08:03:13.113Z,54.28
2018-08-18T08:05:45.732Z,52.57
2018-08-18T08:08:20.281Z,52.71
2018-08-18T08:11:11.736Z,51.68
2018-08-18T08:13:45.440Z,50.96
2018-08-18T08:16:17.994Z,50.71
2018-08-18T08:18:52.642Z,50.76
2018-08-18T08:21:25.725Z,49.79
2018-08-18T08:24:01.533Z,49.31
2018-08-18T08:26:38.369Z,48.79
2018-08-18T08:29:35.871Z,50.11
2018-08-18T08:32:09.594Z,50.61
2018-08-18T08:34:45.876Z,47.82
2018-08-18T08:37:24.898Z,48.45
2018-08-18T08:39:59.050Z,47.09
2018-08-18T08:42:34.200Z,48.06
2018-08-18T08:45:18.121Z,47.97
2018-08-18T08:47:54.761Z,47.19
2018-08-18T08:50:27.486Z,46.28
2018-08-18T08:53:00.744Z,44.24
2018-08-18T08:55:35.494Z,43.49
2018-08-18T08:58:09.829Z,43.88
2018-08-18T09:00:45.633Z,44.26
2018-08-18T09:03:18.806Z,44.52
2018-08-18T09:05:51.326Z,44.97
2018-08-18T09:08:38.565Z,43.97
2018-08-18T09:11:13.540Z,44.05
2018-08-18T09:14:03.742Z,44.48
2018-08-18T09:16:36.680Z,43.45
2018-08-18T09:19:09.394Z,43.38
2018-08-18T09:21:48.506Z,44.35
2018-08-18T09:24:24.739Z,42.99
2018-08-18T09:27:00.017Z,41.78
2018-08-18T09:29:43.564Z,41.25
2018-08-18T09:32:18.428Z,42.17
2018-08-18T09:34:52.882Z,42.13
2018-08-18T09:37:25.833Z,41.11
2018-08-18T09:40:01.983Z,41.62
2018-08-18T09:42:35.074Z,41.75
2018-08-18T09:45:09.998Z,41.37
2018-08-18T09:47:44.675Z,41.37
2018-08-18T09:50:18.827Z,41.15
2018-08-18T09:52:52.152Z,41.49
2018-08-18T09:55:24.736Z,41.50
2018-08-18T09:57:58.397Z,41.42
2018-08-18T10:00:42.186Z,41.19
2018-08-18T10:03:18.394Z,41.32
2018-08-18T10:05:50.876Z,41.13
2018-08-18T10:08:24.044Z,41.60
2018-08-18T10:11:01.098Z,41.46
2018-08-18T10:13:34.841Z,42.02
2018-08-18T10:16:09.367Z,40.60
2018-08-18T10:18:48.150Z,40.58
2018-08-18T10:21:21.358Z,41.27
2018-08-18T10:23:54.242Z,41.21
2018-08-18T10:26:30.296Z,40.91
2018-08-18T10:29:20.945Z,40.50
2018-08-18T10:32:00.110Z,41.14
2018-08-18T10:34:34.780Z,40.50
2018-08-18T10:37:14.108Z,39.60
2018-08-18T10:39:53.626Z,40.61
2018-08-18T10:42:33.144Z,40.18
2018-08-18T10:45:08.797Z,40.88
2018-08-18T10:47:45.244Z,41.33
2018-08-18T10:50:42.162Z,40.05
2018-08-18T10:53:15.898Z,39.05
2018-08-18T10:55:50.054Z,39.35
2018-08-18T10:58:46.099Z,38.78
2018-08-18T11:01:18.936Z,39.55
2018-08-18T11:03:53.065Z,39.02
2018-08-18T11:06:33.289Z,38.29
2018-08-18T11:09:10.013Z,37.57
2018-08-18T11:11:46.425Z,36.58
2018-08-18T11:14:21.987Z,36.50
2018-08-18T11:16:56.456Z,35.44
2018-08-18T11:19:30.102Z,34.82
2018-08-18T11:23:02.133Z,34.84
2018-08-18T11:25:44.796Z,35.19
2018-08-18T11:28:19.363Z,35.13
2018-08-18T11:30:55.328Z,35.34
2018-08-18T11:33:43.718Z,35.76
2018-08-18T11:36:17.333Z,35.65
2018-08-18T11:38:50.257Z,35.86
2018-08-18T11:41:26.213Z,36.57
2018-08-18T11:43:58.968Z,36.48
2018-08-18T11:46:48.280Z,35.77
2018-08-18T11:49:21.012Z,35.39
2018-08-18T11:51:58.265Z,33.97
2018-08-18T11:54:31.109Z,34.58
2018-08-18T11:57:03.779Z,34.50
2018-08-18T11:59:36.439Z,34.51
2018-08-18T12:02:09.757Z,33.60
2018-08-18T12:04:42.424Z,33.99
2018-08-18T12:07:15.966Z,34.25
2018-08-18T12:09:52.497Z,34.75
2018-08-18T12:12:25.831Z,34.83
2018-08-18T12:14:59.749Z,34.44
2018-08-18T12:17:57.344Z,34.18
2018-08-18T12:20:31.606Z,34.05
2018-08-18T12:23:09.517Z,34.08
2018-08-18T12:25:48.145Z,33.80
2018-08-18T12:28:45.795Z,34.10
2018-08-18T12:31:33.155Z,34.23
2018-08-18T12:34:06.065Z,34.00
2018-08-18T12:36:40.480Z,32.81
2018-08-18T12:39:13.533Z,33.29
2018-08-18T12:41:49.721Z,33.87
2018-08-18T12:44:33.342Z,33.25
2018-08-18T12:47:06.431Z,33.34
2018-08-18T12:49:42.256Z,33.20
2018-08-18T12:52:14.984Z,33.34
2018-08-18T12:54:49.098Z,33.59
2018-08-18T12:57:40.921Z,33.91
2018-08-18T13:00:17.703Z,33.27
2018-08-18T13:02:54.661Z,32.39
2018-08-18T13:05:31.366Z,32.15
2018-08-18T13:08:09.245Z,32.54
2018-08-18T13:10:42.808Z,32.81
2018-08-18T13:13:16.141Z,31.12
2018-08-18T13:15:54.042Z,30.75
2018-08-18T13:18:28.615Z,30.80
2018-08-18T13:21:06.702Z,31.16
2018-08-18T13:23:46.161Z,31.98
2018-08-18T13:26:18.888Z,31.92
2018-08-18T13:28:53.152Z,31.37
2018-08-18T13:31:33.780Z,31.36
2018-08-18T13:34:09.407Z,31.71
2018-08-18T13:36:44.827Z,32.30
2018-08-18T13:39:24.705Z,31.42
2018-08-18T13:42:25.413Z,31.60
2018-08-18T13:44:58.041Z,31.62
2018-08-18T13:47:30.657Z,31.62
2018-08-18T13:50:09.277Z,30.91
2018-08-18T13:52:47.556Z,30.34
2018-08-18T13:55:31.516Z,30.23
2018-08-18T13:58:05.744Z,30.72
2018-08-18T14:00:38.642Z,31.04
2018-08-18T14:03:36.585Z,30.84
2018-08-18T14:06:22.321Z,30.61
2018-08-18T14:09:01.232Z,30.71
2018-08-18T14:11:34.657Z,30.80
2018-08-18T14:14:09.057Z,30.65
2018-08-18T14:16:42.137Z,30.57
2018-08-18T14:19:16.497Z,31.07
2018-08-18T14:22:05.070Z,31.33
2018-08-18T14:24:41.707Z,31.71
2018-08-18T14:27:17.775Z,31.82
2018-08-18T14:29:50.653Z,31.51
2018-08-18T14:32:28.540Z,31.55
2018-08-18T14:35:05.723Z,31.05
2018-08-18T14:37:41.859Z,30.74
2018-08-18T14:40:18.085Z,29.71
2018-08-18T14:42:51.225Z,29.04
2018-08-18T14:45:28.788Z,29.42
2018-08-18T14:48:01.865Z,29.65
2018-08-18T14:50:38.206Z,29.28
2018-08-18T14:53:16.692Z,29.60
2018-08-18T14:55:52.347Z,30.27
2018-08-18T14:58:31.695Z,30.34
2018-08-18T15:01:12.929Z,30.00
2018-08-18T15:03:46.016Z,29.44
2018-08-18T15:06:22.445Z,29.51
2018-08-18T15:08:58.485Z,28.82
2018-08-18T15:11:32.815Z,28.95
2018-08-18T15:14:13.522Z,28.71
2018-08-18T15:16:51.016Z,27.97
2018-08-18T15:19:28.676Z,27.58
2018-08-18T15:22:12.556Z,27.95
2018-08-18T15:24:51.404Z,28.19
2018-08-18T15:27:30.876Z,27.71
2018-08-18T15:30:17.053Z,27.41
2018-08-18T15:32:54.549Z,27.81
2018-08-18T15:35:36.724Z,27.69
2018-08-18T15:38:16.889Z,27.87
2018-08-18T15:40:54.193Z,27.03
2018-08-18T15:43:32.759Z,27.29
2018-08-18T15:46:10.358Z,27.95
2018-08-18T15:48:49.128Z,28.30
2018-08-18T15:51:29.056Z,28.98
2018-08-18T15:54:06.591Z,28.69
2018-08-18T15:56:45.704Z,29.30
2018-08-18T15:59:27.720Z,29.54
2018-08-18T16:02:05.233Z,29.32
2018-08-18T16:04:42.662Z,29.29
2018-08-18T16:07:21.785Z,29.76
2018-08-18T16:09:59.973Z,29.89
2018-08-18T16:12:37.363Z,29.82
2018-08-18T16:15:16.465Z,29.82
2018-08-18T16:17:55.208Z,29.90
2018-08-18T16:20:34.329Z,28.50
2018-08-18T16:23:23.200Z,28.01
2018-08-18T16:25:56.834Z,27.34
2018-08-18T16:28:36.169Z,26.70
2018-08-18T16:31:09.454Z,26.41
2018-08-18T16:33:57.171Z,26.22
2018-08-18T16:36:36.783Z,26.28
2018-08-18T16:39:12.404Z,25.72
2018-08-18T16:41:47.418Z,25.71
2018-08-18T16:44:20.116Z,26.33
2018-08-18T16:46:53.445Z,26.59
2018-08-18T16:49:26.798Z,26.58
2018-08-18T16:52:00.048Z,26.54
2018-08-18T16:54:33.767Z,27.09
2018-08-18T16:57:08.675Z,27.47
2018-08-18T16:59:41.138Z,27.98
2018-08-18T17:02:35.370Z,27.93
2018-08-18T17:05:11.336Z,27.95
2018-08-18T17:07:51.192Z,28.36
2018-08-18T17:10:31.261Z,28.74
2018-08-18T17:13:11.809Z,29.55
2018-08-18T17:15:56.455Z,29.78
2018-08-18T17:18:41.411Z,29.85
2018-08-18T17:21:19.602Z,30.79
2018-08-18T17:23:53.700Z,31.00
2018-08-18T17:26:31.108Z,31.47
2018-08-18T17:29:05.058Z,31.92
2018-08-18T17:31:38.884Z,32.68
2018-08-18T17:34:14.448Z,33.14
2018-08-18T17:36:47.173Z,33.36
2018-08-18T17:39:20.849Z,33.43
2018-08-18T17:41:53.760Z,33.81
2018-08-18T17:44:28.809Z,34.21
2018-08-18T17:47:08.033Z,34.44
2018-08-18T17:49:49.182Z,34.99
2018-08-18T17:52:23.661Z,35.68
2018-08-18T17:55:18.546Z,36.37
2018-08-18T17:57:54.135Z,36.87
2018-08-18T18:00:31.138Z,37.27
2018-08-18T18:03:09.850Z,38.39
2018-08-18T18:05:44.731Z,39.03
2018-08-18T18:08:18.919Z,39.51
2018-08-18T18:10:52.821Z,40.03
2018-08-18T18:13:28.968Z,40.34
2018-08-18T18:16:25.362Z,41.29
2018-08-18T18:19:01.396Z,41.75
2018-08-18T18:21:41.829Z,42.37
2018-08-18T18:24:43.169Z,42.89
2018-08-18T18:27:17.013Z,43.65
2018-08-18T18:29:51.578Z,44.25
2018-08-18T18:32:26.699Z,44.74
2018-08-18T18:35:07.549Z,45.16
2018-08-18T18:37:40.427Z,45.58
2018-08-18T18:40:17.897Z,46.26
2018-08-18T18:42:51.820Z,47.03
2018-08-18T18:45:26.312Z,47.59
2018-08-18T18:48:12.484Z,48.11
2018-08-18T18:50:50.130Z,48.90
2018-08-18T18:53:46.453Z,50.23
2018-08-18T18:56:25.511Z,50.49
2018-08-18T18:59:02.638Z,50.98
2018-08-18T19:01:37.757Z,52.02
2018-08-18T19:04:13.291Z,52.79
2018-08-18T19:07:06.195Z,52.87
2018-08-18T19:09:38.801Z,53.12
2018-08-18T19:12:17.809Z,53.92
2018-08-18T19:14:52.674Z,54.64
2018-08-18T19:17:25.713Z,55.09
2018-08-18T19:20:22.582Z,55.72
2018-08-18T19:23:04.648Z,57.11
2018-08-18T19:25:39.710Z,56.77
2018-08-18T19:28:18.369Z,57.04
2018-08-18T19:30:54.699Z,57.27
2018-08-18T19:33:30.469Z,57.53
2018-08-18T19:36:06.584Z,57.82
2018-08-18T19:38:38.972Z,58.16
2018-08-18T19:41:22.615Z,58.60
2018-08-18T19:43:57.940Z,58.97
2018-08-18T19:46:35.750Z,59.47
2018-08-18T19:49:10.658Z,60.19
2018-08-18T19:51:45.955Z,61.49
2018-08-18T19:54:23.291Z,61.19
2018-08-18T19:56:56.815Z,62.33
2018-08-18T19:59:30.208Z,62.23
2018-08-18T20:02:05.248Z,62.29
2018-08-18T20:04:38.528Z,62.27
2018-08-18T20:07:13.192Z,63.49
2018-08-18T20:09:45.836Z,63.27
2018-08-18T20:12:18.667Z,63.28
2018-08-18T20:14:52.038Z,63.42
2018-08-18T20:17:29.369Z,63.72
2018-08-18T20:20:01.996Z,64.04
2018-08-18T20:22:35.739Z,64.34
2018-08-18T20:25:17.147Z,64.72
2018-08-18T20:27:50.660Z,65.07
2018-08-18T20:30:25.744Z,67.22
2018-08-18T20:33:00.490Z,66.86
2018-08-18T20:35:33.127Z,67.21
2018-08-18T20:38:06.372Z,67.68
2018-08-18T20:40:44.024Z,68.24
2018-08-18T20:43:18.800Z,68.21
2018-08-18T20:45:52.303Z,68.54
2018-08-18T20:48:27.131Z,68.88
2018-08-18T20:51:03.028Z,69.00
2018-08-18T20:53:41.906Z,69.56
2018-08-18T20:56:15.289Z,69.52
2018-08-18T20:58:50.597Z,69.64
2018-08-18T21:01:24.537Z,69.79
2018-08-18T21:03:58.679Z,70.25
2018-08-18T21:06:33.373Z,72.12
2018-08-18T21:09:34.775Z,71.83
2018-08-18T21:12:10.394Z,71.89
2018-08-18T21:14:44.413Z,71.96
2018-08-18T21:17:19.304Z,72.05
2018-08-18T21:19:56.226Z,72.47
2018-08-18T21:22:31.712Z,72.55
2018-08-18T21:25:09.282Z,72.57
2018-08-18T21:27:53.052Z,72.65
2018-08-18T21:30:30.630Z,73.05
2018-08-18T21:33:06.988Z,73.14
2018-08-18T21:35:42.538Z,73.42
2018-08-18T21:38:19.264Z,73.51
2018-08-18T21:40:56.633Z,74.19
2018-08-18T21:43:36.122Z,74.41
2018-08-18T21:46:11.495Z,74.55
2018-08-18T21:48:52.321Z,74.85
2018-08-18T21:51:28.927Z,74.94
2018-08-18T21:54:05.398Z,75.36
2018-08-18T21:56:42.516Z,75.96
2018-08-18T21:59:15.098Z,76.23
2018-08-18T22:01:58.488Z,76.11
2018-08-18T22:04:33.996Z,77.70
2018-08-18T22:07:09.449Z,78.46
2018-08-18T22:09:44.267Z,78.15
2018-08-18T22:12:31.663Z,78.49
2018-08-18T22:15:15.910Z,79.02
2018-08-18T22:17:51.523Z,79.36
2018-08-18T22:20:24.731Z,79.50
2018-08-18T22:22:57.568Z,79.55
2018-08-18T22:25:30.156Z,79.94
2018-08-18T22:28:02.555Z,80.26
2018-08-18T22:30:40.559Z,80.57
2018-08-18T22:33:13.528Z,80.90
2018-08-18T22:35:56.393Z,81.29
2018-08-18T22:38:32.074Z,81.93
2018-08-18T22:41:09.319Z,82.00
2018-08-18T22:43:44.397Z,82.20
2018-08-18T22:46:22.055Z,82.54
2018-08-18T22:48:57.844Z,82.82
2018-08-18T22:51:35.228Z,83.34
2018-08-18T22:54:11.678Z,83.54
2018-08-18T22:57:01.520Z,83.84
2018-08-18T22:59:34.244Z,84.13
2018-08-18T23:02:07.020Z,84.42
2018-08-18T23:04:39.511Z,84.68
2018-08-18T23:07:14.861Z,84.91
2018-08-18T23:09:48.544Z,85.01
2018-08-18T23:12:21.136Z,85.30
2018-08-18T23:14:55.080Z,85.59
2018-08-18T23:17:29.882Z,85.69
2018-08-18T23:20:04.843Z,85.77
2018-08-18T23:23:00.937Z,85.88
2018-08-18T23:25:34.519Z,85.92
2018-08-18T23:28:09.417Z,86.14
2018-08-18T23:30:43.157Z,86.31
2018-08-18T23:33:20.178Z,86.46
2018-08-18T23:35:58.740Z,86.71
2018-08-18T23:38:56.669Z,86.83
2018-08-18T23:41:29.089Z,87.09
2018-08-18T23:44:02.191Z,87.17
2018-08-18T23:46:35.512Z,87.31
2018-08-18T23:49:09.396Z,87.89
2018-08-18T23:51:42.605Z,87.83
2018-08-18T23:54:21.305Z,87.86
2018-08-18T23:56:53.955Z,88.09
2018-08-18T23:59:26.787Z,88.30
